sensor_id;sensor_type;location;lat;lon;timestamp;temperature;humidity
11304;DHT22;5707;49.588;12.148;2023-06-22T00:02:15;15.90;99.90
11304;DHT22;5707;49.588;12.148;2023-06-22T00:04:40;15.90;99.90
11304;DHT22;5707;49.588;12.148;2023-06-22T00:07:06;15.90;99.90
11304;DHT22;5707;49.588;12.148;2023-06-22T00:09:32;15.90;99.90
11304;DHT22;5707;49.588;12.148;2023-06-22T00:11:58;15.90;99.90
11304;DHT22;5707;49.588;12.148;2023-06-22T00:14:23;15.90;99.90
11304;DHT22;5707;49.588;12.148;2023-06-22T00:16:49;16.00;99.90
11304;DHT22;5707;49.588;12.148;2023-06-22T00:19:20;16.10;99.90
11304;DHT22;5707;49.588;12.148;2023-06-22T00:21:47;16.00;99.90
11304;DHT22;5707;49.588;12.148;2023-06-22T00:24:13;16.00;99.90
11304;DHT22;5707;49.588;12.148;2023-06-22T00:26:38;15.90;99.90
11304;DHT22;5707;49.588;12.148;2023-06-22T00:29:04;15.80;99.90
11304;DHT22;5707;49.588;12.148;2023-06-22T00:31:30;15.80;99.90
11304;DHT22;5707;49.588;12.148;2023-06-22T00:33:55;15.70;99.90
11304;DHT22;5707;49.588;12.148;2023-06-22T00:36:21;15.60;99.90
11304;DHT22;5707;49.588;12.148;2023-06-22T00:38:46;15.60;99.90
11304;DHT22;5707;49.588;12.148;2023-06-22T00:41:12;15.50;99.90
11304;DHT22;5707;49.588;12.148;2023-06-22T00:43:37;15.50;99.90
11304;DHT22;5707;49.588;12.148;2023-06-22T00:46:03;15.50;99.90
11304;DHT22;5707;49.588;12.148;2023-06-22T00:48:29;15.50;99.90
11304;DHT22;5707;49.588;12.148;2023-06-22T00:50:54;15.50;99.90
11304;DHT22;5707;49.588;12.148;2023-06-22T00:53:21;15.50;99.90
11304;DHT22;5707;49.588;12.148;2023-06-22T00:55:48;15.50;99.90
11304;DHT22;5707;49.588;12.148;2023-06-22T00:58:17;15.50;99.90
11304;DHT22;5707;49.588;12.148;2023-06-22T01:00:47;15.50;99.90
11304;DHT22;5707;49.588;12.148;2023-06-22T01:03:12;15.50;99.90
11304;DHT22;5707;49.588;12.148;2023-06-22T01:05:38;15.40;99.90
11304;DHT22;5707;49.588;12.148;2023-06-22T01:08:35;15.40;99.90
11304;DHT22;5707;49.588;12.148;2023-06-22T01:11:30;15.30;99.90
11304;DHT22;5707;49.588;12.148;2023-06-22T01:16:44;15.30;99.90
11304;DHT22;5707;49.588;12.148;2023-06-22T01:22:05;15.40;99.90
11304;DHT22;5707;49.588;12.148;2023-06-22T01:24:57;15.30;99.90
11304;DHT22;5707;49.588;12.148;2023-06-22T01:27:53;15.20;99.90
11304;DHT22;5707;49.588;12.148;2023-06-22T01:30:24;15.20;99.90
11304;DHT22;5707;49.588;12.148;2023-06-22T01:32:53;15.10;99.90
11304;DHT22;5707;49.588;12.148;2023-06-22T01:35:20;15.10;99.90
11304;DHT22;5707;49.588;12.148;2023-06-22T01:37:46;15.10;99.90
11304;DHT22;5707;49.588;12.148;2023-06-22T01:40:13;15.10;99.90
11304;DHT22;5707;49.588;12.148;2023-06-22T01:42:40;15.10;99.90
11304;DHT22;5707;49.588;12.148;2023-06-22T01:45:07;15.00;99.90
11304;DHT22;5707;49.588;12.148;2023-06-22T01:47:34;15.00;99.90
11304;DHT22;5707;49.588;12.148;2023-06-22T01:49:59;15.00;99.90
11304;DHT22;5707;49.588;12.148;2023-06-22T01:52:25;15.00;99.90
11304;DHT22;5707;49.588;12.148;2023-06-22T01:54:51;15.00;99.90
11304;DHT22;5707;49.588;12.148;2023-06-22T01:57:17;14.90;99.90
11304;DHT22;5707;49.588;12.148;2023-06-22T02:00:11;15.00;99.90
11304;DHT22;5707;49.588;12.148;2023-06-22T02:05:33;15.00;99.90
11304;DHT22;5707;49.588;12.148;2023-06-22T02:08:10;15.10;99.90
11304;DHT22;5707;49.588;12.148;2023-06-22T02:10:38;15.10;99.90
11304;DHT22;5707;49.588;12.148;2023-06-22T02:13:07;15.00;99.90
11304;DHT22;5707;49.588;12.148;2023-06-22T02:15:33;15.00;99.90
11304;DHT22;5707;49.588;12.148;2023-06-22T02:17:59;15.00;99.90
11304;DHT22;5707;49.588;12.148;2023-06-22T02:20:25;15.10;99.90
11304;DHT22;5707;49.588;12.148;2023-06-22T02:22:51;15.10;99.90
11304;DHT22;5707;49.588;12.148;2023-06-22T02:25:16;15.10;99.90
11304;DHT22;5707;49.588;12.148;2023-06-22T02:27:42;15.10;99.90
11304;DHT22;5707;49.588;12.148;2023-06-22T02:30:08;15.20;99.90
11304;DHT22;5707;49.588;12.148;2023-06-22T02:32:34;15.20;99.90
11304;DHT22;5707;49.588;12.148;2023-06-22T02:35:00;15.30;99.90
11304;DHT22;5707;49.588;12.148;2023-06-22T02:37:29;15.30;99.90
11304;DHT22;5707;49.588;12.148;2023-06-22T02:39:55;15.30;99.90
11304;DHT22;5707;49.588;12.148;2023-06-22T02:42:21;15.30;99.90
11304;DHT22;5707;49.588;12.148;2023-06-22T02:44:47;15.30;99.90
11304;DHT22;5707;49.588;12.148;2023-06-22T02:47:13;15.30;99.90
11304;DHT22;5707;49.588;12.148;2023-06-22T02:49:38;15.20;99.90
11304;DHT22;5707;49.588;12.148;2023-06-22T02:52:04;15.20;99.90
11304;DHT22;5707;49.588;12.148;2023-06-22T02:54:29;15.20;99.90
11304;DHT22;5707;49.588;12.148;2023-06-22T02:56:55;15.20;99.90
11304;DHT22;5707;49.588;12.148;2023-06-22T02:59:21;15.20;99.90
11304;DHT22;5707;49.588;12.148;2023-06-22T03:01:50;15.10;99.90
11304;DHT22;5707;49.588;12.148;2023-06-22T03:04:16;15.00;99.90
11304;DHT22;5707;49.588;12.148;2023-06-22T03:06:41;14.90;99.90
11304;DHT22;5707;49.588;12.148;2023-06-22T03:09:07;14.90;99.90
11304;DHT22;5707;49.588;12.148;2023-06-22T03:11:33;15.00;99.90
11304;DHT22;5707;49.588;12.148;2023-06-22T03:14:00;15.00;99.90
11304;DHT22;5707;49.588;12.148;2023-06-22T03:16:26;15.00;99.90
11304;DHT22;5707;49.588;12.148;2023-06-22T03:18:52;15.10;99.90
11304;DHT22;5707;49.588;12.148;2023-06-22T03:21:22;15.20;99.90
11304;DHT22;5707;49.588;12.148;2023-06-22T03:23:48;15.10;99.90
11304;DHT22;5707;49.588;12.148;2023-06-22T03:26:17;15.20;99.90
11304;DHT22;5707;49.588;12.148;2023-06-22T03:28:43;15.30;99.90
11304;DHT22;5707;49.588;12.148;2023-06-22T03:31:08;15.30;99.90
11304;DHT22;5707;49.588;12.148;2023-06-22T03:33:34;15.40;99.90
11304;DHT22;5707;49.588;12.148;2023-06-22T03:35:59;15.50;99.90
11304;DHT22;5707;49.588;12.148;2023-06-22T03:38:25;15.50;99.90
11304;DHT22;5707;49.588;12.148;2023-06-22T03:40:50;15.50;99.90
11304;DHT22;5707;49.588;12.148;2023-06-22T03:43:16;15.60;99.90
11304;DHT22;5707;49.588;12.148;2023-06-22T03:45:41;15.70;99.90
11304;DHT22;5707;49.588;12.148;2023-06-22T03:48:07;15.80;99.90
11304;DHT22;5707;49.588;12.148;2023-06-22T03:50:33;16.00;99.90
11304;DHT22;5707;49.588;12.148;2023-06-22T03:52:58;16.00;99.90
11304;DHT22;5707;49.588;12.148;2023-06-22T03:55:24;16.10;99.90
11304;DHT22;5707;49.588;12.148;2023-06-22T03:57:49;16.00;99.90
11304;DHT22;5707;49.588;12.148;2023-06-22T04:00:15;16.00;99.90
11304;DHT22;5707;49.588;12.148;2023-06-22T04:02:41;16.10;99.90
11304;DHT22;5707;49.588;12.148;2023-06-22T04:05:08;16.10;99.90
11304;DHT22;5707;49.588;12.148;2023-06-22T04:07:34;16.20;99.90
11304;DHT22;5707;49.588;12.148;2023-06-22T04:10:05;16.20;99.90
11304;DHT22;5707;49.588;12.148;2023-06-22T04:12:31;16.30;99.90
11304;DHT22;5707;49.588;12.148;2023-06-22T04:14:56;16.40;99.90
11304;DHT22;5707;49.588;12.148;2023-06-22T04:17:22;16.40;99.90
11304;DHT22;5707;49.588;12.148;2023-06-22T04:19:50;16.60;99.90
11304;DHT22;5707;49.588;12.148;2023-06-22T04:22:16;16.80;99.90
11304;DHT22;5707;49.588;12.148;2023-06-22T04:24:41;17.20;99.90
11304;DHT22;5707;49.588;12.148;2023-06-22T04:27:07;17.30;99.90
11304;DHT22;5707;49.588;12.148;2023-06-22T04:29:32;17.40;99.90
11304;DHT22;5707;49.588;12.148;2023-06-22T04:31:58;17.50;99.90
11304;DHT22;5707;49.588;12.148;2023-06-22T04:34:28;17.50;99.90
11304;DHT22;5707;49.588;12.148;2023-06-22T04:36:54;17.60;99.90
11304;DHT22;5707;49.588;12.148;2023-06-22T04:39:19;17.70;99.90
11304;DHT22;5707;49.588;12.148;2023-06-22T04:41:45;17.80;99.90
11304;DHT22;5707;49.588;12.148;2023-06-22T04:44:11;18.00;99.90
11304;DHT22;5707;49.588;12.148;2023-06-22T04:46:38;18.10;99.90
11304;DHT22;5707;49.588;12.148;2023-06-22T04:49:09;18.30;99.90
11304;DHT22;5707;49.588;12.148;2023-06-22T04:51:42;18.40;99.90
11304;DHT22;5707;49.588;12.148;2023-06-22T04:54:09;18.60;99.90
11304;DHT22;5707;49.588;12.148;2023-06-22T04:56:34;18.70;99.90
11304;DHT22;5707;49.588;12.148;2023-06-22T04:59:00;18.90;99.90
11304;DHT22;5707;49.588;12.148;2023-06-22T05:01:26;19.10;99.90
11304;DHT22;5707;49.588;12.148;2023-06-22T05:03:52;19.50;99.90
11304;DHT22;5707;49.588;12.148;2023-06-22T05:06:24;19.90;99.90
11304;DHT22;5707;49.588;12.148;2023-06-22T05:08:54;20.50;99.90
11304;DHT22;5707;49.588;12.148;2023-06-22T05:11:24;21.20;99.90
11304;DHT22;5707;49.588;12.148;2023-06-22T05:13:50;22.00;99.90
11304;DHT22;5707;49.588;12.148;2023-06-22T05:16:16;22.50;99.90
11304;DHT22;5707;49.588;12.148;2023-06-22T05:18:41;22.90;99.90
11304;DHT22;5707;49.588;12.148;2023-06-22T05:21:08;23.30;99.90
11304;DHT22;5707;49.588;12.148;2023-06-22T05:23:34;23.70;99.90
11304;DHT22;5707;49.588;12.148;2023-06-22T05:26:00;23.80;99.90
11304;DHT22;5707;49.588;12.148;2023-06-22T05:28:25;24.00;99.90
11304;DHT22;5707;49.588;12.148;2023-06-22T05:30:51;24.20;99.90
11304;DHT22;5707;49.588;12.148;2023-06-22T05:33:16;24.50;99.90
11304;DHT22;5707;49.588;12.148;2023-06-22T05:35:42;24.80;99.90
11304;DHT22;5707;49.588;12.148;2023-06-22T05:38:08;24.80;99.90
11304;DHT22;5707;49.588;12.148;2023-06-22T05:40:33;24.70;99.90
11304;DHT22;5707;49.588;12.148;2023-06-22T05:42:59;24.20;99.90
11304;DHT22;5707;49.588;12.148;2023-06-22T05:45:26;23.70;99.90
11304;DHT22;5707;49.588;12.148;2023-06-22T05:47:51;23.50;99.90
11304;DHT22;5707;49.588;12.148;2023-06-22T05:50:17;23.10;99.90
11304;DHT22;5707;49.588;12.148;2023-06-22T05:52:42;22.80;99.90
11304;DHT22;5707;49.588;12.148;2023-06-22T05:55:08;22.50;99.90
11304;DHT22;5707;49.588;12.148;2023-06-22T05:57:34;22.50;99.90
11304;DHT22;5707;49.588;12.148;2023-06-22T05:59:59;22.60;99.90
11304;DHT22;5707;49.588;12.148;2023-06-22T06:02:25;22.80;99.90
11304;DHT22;5707;49.588;12.148;2023-06-22T06:04:50;22.90;99.90
11304;DHT22;5707;49.588;12.148;2023-06-22T06:07:18;23.00;99.90
11304;DHT22;5707;49.588;12.148;2023-06-22T06:09:43;23.30;99.90
11304;DHT22;5707;49.588;12.148;2023-06-22T06:12:09;23.50;99.90
11304;DHT22;5707;49.588;12.148;2023-06-22T06:14:35;23.70;99.90
11304;DHT22;5707;49.588;12.148;2023-06-22T06:17:00;23.90;99.90
11304;DHT22;5707;49.588;12.148;2023-06-22T06:19:26;24.00;99.90
11304;DHT22;5707;49.588;12.148;2023-06-22T06:21:51;24.00;99.90
11304;DHT22;5707;49.588;12.148;2023-06-22T06:24:17;24.00;99.90
11304;DHT22;5707;49.588;12.148;2023-06-22T06:26:42;24.20;99.90
11304;DHT22;5707;49.588;12.148;2023-06-22T06:29:08;24.30;99.90
11304;DHT22;5707;49.588;12.148;2023-06-22T06:31:33;24.30;99.90
11304;DHT22;5707;49.588;12.148;2023-06-22T06:33:59;24.30;99.90
11304;DHT22;5707;49.588;12.148;2023-06-22T06:36:25;24.40;99.90
11304;DHT22;5707;49.588;12.148;2023-06-22T06:38:50;24.50;99.90
11304;DHT22;5707;49.588;12.148;2023-06-22T06:41:16;24.60;99.90
11304;DHT22;5707;49.588;12.148;2023-06-22T06:43:42;24.70;99.90
11304;DHT22;5707;49.588;12.148;2023-06-22T06:46:08;24.90;99.90
11304;DHT22;5707;49.588;12.148;2023-06-22T06:48:34;24.80;99.90
11304;DHT22;5707;49.588;12.148;2023-06-22T06:51:01;24.80;99.90
11304;DHT22;5707;49.588;12.148;2023-06-22T06:53:27;24.70;99.90
11304;DHT22;5707;49.588;12.148;2023-06-22T06:55:54;24.70;99.90
11304;DHT22;5707;49.588;12.148;2023-06-22T06:58:19;24.70;99.90
11304;DHT22;5707;49.588;12.148;2023-06-22T07:00:45;24.70;99.90
11304;DHT22;5707;49.588;12.148;2023-06-22T07:03:11;24.60;99.90
11304;DHT22;5707;49.588;12.148;2023-06-22T07:05:36;24.60;99.90
11304;DHT22;5707;49.588;12.148;2023-06-22T07:08:02;24.80;99.90
11304;DHT22;5707;49.588;12.148;2023-06-22T07:10:29;24.90;99.90
11304;DHT22;5707;49.588;12.148;2023-06-22T07:12:54;25.10;99.90
11304;DHT22;5707;49.588;12.148;2023-06-22T07:15:20;25.20;99.90
11304;DHT22;5707;49.588;12.148;2023-06-22T07:17:45;25.30;99.90
11304;DHT22;5707;49.588;12.148;2023-06-22T07:20:11;25.30;99.90
11304;DHT22;5707;49.588;12.148;2023-06-22T07:22:43;25.40;99.90
11304;DHT22;5707;49.588;12.148;2023-06-22T07:25:09;25.50;99.90
11304;DHT22;5707;49.588;12.148;2023-06-22T07:27:39;25.60;99.90
11304;DHT22;5707;49.588;12.148;2023-06-22T07:30:08;25.70;99.90
11304;DHT22;5707;49.588;12.148;2023-06-22T07:32:34;25.80;99.90
11304;DHT22;5707;49.588;12.148;2023-06-22T07:35:00;26.10;99.90
11304;DHT22;5707;49.588;12.148;2023-06-22T07:37:27;26.30;99.90
11304;DHT22;5707;49.588;12.148;2023-06-22T07:39:53;26.30;99.90
11304;DHT22;5707;49.588;12.148;2023-06-22T07:42:26;26.30;99.90
11304;DHT22;5707;49.588;12.148;2023-06-22T07:44:53;26.40;99.90
11304;DHT22;5707;49.588;12.148;2023-06-22T07:47:18;26.40;99.90
11304;DHT22;5707;49.588;12.148;2023-06-22T07:49:45;26.50;99.90
11304;DHT22;5707;49.588;12.148;2023-06-22T07:52:11;26.60;99.90
11304;DHT22;5707;49.588;12.148;2023-06-22T07:54:38;26.60;99.90
11304;DHT22;5707;49.588;12.148;2023-06-22T07:57:03;26.70;99.90
11304;DHT22;5707;49.588;12.148;2023-06-22T07:59:29;26.70;99.90
11304;DHT22;5707;49.588;12.148;2023-06-22T08:01:55;26.60;99.90
11304;DHT22;5707;49.588;12.148;2023-06-22T08:04:20;26.60;99.90
11304;DHT22;5707;49.588;12.148;2023-06-22T08:06:46;26.60;99.90
11304;DHT22;5707;49.588;12.148;2023-06-22T08:09:12;26.60;99.90
11304;DHT22;5707;49.588;12.148;2023-06-22T08:11:37;26.60;99.90
11304;DHT22;5707;49.588;12.148;2023-06-22T08:14:03;26.60;99.90
11304;DHT22;5707;49.588;12.148;2023-06-22T08:16:29;26.60;99.90
11304;DHT22;5707;49.588;12.148;2023-06-22T08:18:54;26.60;99.90
11304;DHT22;5707;49.588;12.148;2023-06-22T08:21:20;26.60;99.90
11304;DHT22;5707;49.588;12.148;2023-06-22T08:23:47;26.70;99.90
11304;DHT22;5707;49.588;12.148;2023-06-22T08:26:14;26.80;99.90
11304;DHT22;5707;49.588;12.148;2023-06-22T08:28:40;26.80;99.90
11304;DHT22;5707;49.588;12.148;2023-06-22T08:31:05;26.90;99.90
11304;DHT22;5707;49.588;12.148;2023-06-22T08:33:31;27.20;99.90
11304;DHT22;5707;49.588;12.148;2023-06-22T08:35:58;27.10;99.90
11304;DHT22;5707;49.588;12.148;2023-06-22T08:38:24;27.10;99.90
11304;DHT22;5707;49.588;12.148;2023-06-22T08:40:50;27.10;99.90
11304;DHT22;5707;49.588;12.148;2023-06-22T08:43:15;27.10;99.90
11304;DHT22;5707;49.588;12.148;2023-06-22T08:45:41;27.20;99.90
11304;DHT22;5707;49.588;12.148;2023-06-22T08:48:06;27.20;99.90
11304;DHT22;5707;49.588;12.148;2023-06-22T08:50:32;27.40;99.90
11304;DHT22;5707;49.588;12.148;2023-06-22T08:52:58;27.50;99.90
11304;DHT22;5707;49.588;12.148;2023-06-22T08:55:23;27.70;99.90
11304;DHT22;5707;49.588;12.148;2023-06-22T08:57:49;27.90;99.90
11304;DHT22;5707;49.588;12.148;2023-06-22T09:00:15;28.10;99.90
11304;DHT22;5707;49.588;12.148;2023-06-22T09:02:42;28.20;99.90
11304;DHT22;5707;49.588;12.148;2023-06-22T09:05:08;28.10;99.90
11304;DHT22;5707;49.588;12.148;2023-06-22T09:07:33;28.10;99.90
11304;DHT22;5707;49.588;12.148;2023-06-22T09:09:59;28.20;99.90
11304;DHT22;5707;49.588;12.148;2023-06-22T09:12:25;28.30;99.90
11304;DHT22;5707;49.588;12.148;2023-06-22T09:14:53;28.40;99.90
11304;DHT22;5707;49.588;12.148;2023-06-22T09:17:19;28.50;99.90
11304;DHT22;5707;49.588;12.148;2023-06-22T09:19:44;28.60;99.90
11304;DHT22;5707;49.588;12.148;2023-06-22T09:22:10;28.70;99.90
11304;DHT22;5707;49.588;12.148;2023-06-22T09:24:35;28.80;99.90
11304;DHT22;5707;49.588;12.148;2023-06-22T09:27:01;28.70;99.90
11304;DHT22;5707;49.588;12.148;2023-06-22T09:29:26;28.80;99.90
11304;DHT22;5707;49.588;12.148;2023-06-22T09:31:52;29.10;99.90
11304;DHT22;5707;49.588;12.148;2023-06-22T09:34:21;29.30;99.90
11304;DHT22;5707;49.588;12.148;2023-06-22T09:36:47;29.40;99.90
11304;DHT22;5707;49.588;12.148;2023-06-22T09:39:12;29.50;99.90
11304;DHT22;5707;49.588;12.148;2023-06-22T09:41:38;29.40;99.90
11304;DHT22;5707;49.588;12.148;2023-06-22T09:44:04;29.50;99.90
11304;DHT22;5707;49.588;12.148;2023-06-22T09:46:29;29.60;99.90
11304;DHT22;5707;49.588;12.148;2023-06-22T09:48:55;29.70;99.90
11304;DHT22;5707;49.588;12.148;2023-06-22T09:51:21;29.80;99.80
11304;DHT22;5707;49.588;12.148;2023-06-22T09:53:49;29.90;99.90
11304;DHT22;5707;49.588;12.148;2023-06-22T09:56:15;30.20;98.80
11304;DHT22;5707;49.588;12.148;2023-06-22T09:58:42;30.20;97.90
11304;DHT22;5707;49.588;12.148;2023-06-22T10:01:08;30.00;98.20
11304;DHT22;5707;49.588;12.148;2023-06-22T10:03:33;30.00;96.90
11304;DHT22;5707;49.588;12.148;2023-06-22T10:05:59;30.10;96.60
11304;DHT22;5707;49.588;12.148;2023-06-22T10:08:24;30.20;96.90
11304;DHT22;5707;49.588;12.148;2023-06-22T10:10:50;30.30;95.30
11304;DHT22;5707;49.588;12.148;2023-06-22T10:13:16;30.30;95.20
11304;DHT22;5707;49.588;12.148;2023-06-22T10:15:41;30.50;95.20
11304;DHT22;5707;49.588;12.148;2023-06-22T10:18:08;30.60;95.40
11304;DHT22;5707;49.588;12.148;2023-06-22T10:20:33;30.80;93.30
11304;DHT22;5707;49.588;12.148;2023-06-22T10:22:59;31.00;93.20
11304;DHT22;5707;49.588;12.148;2023-06-22T10:25:25;31.00;91.60
11304;DHT22;5707;49.588;12.148;2023-06-22T10:27:50;30.90;90.80
11304;DHT22;5707;49.588;12.148;2023-06-22T10:30:16;30.80;90.60
11304;DHT22;5707;49.588;12.148;2023-06-22T10:32:42;30.90;92.80
11304;DHT22;5707;49.588;12.148;2023-06-22T10:35:09;31.10;92.20
11304;DHT22;5707;49.588;12.148;2023-06-22T10:37:36;31.20;89.40
11304;DHT22;5707;49.588;12.148;2023-06-22T10:40:02;31.10;90.20
11304;DHT22;5707;49.588;12.148;2023-06-22T10:42:29;31.00;90.30
11304;DHT22;5707;49.588;12.148;2023-06-22T10:44:54;30.90;88.50
11304;DHT22;5707;49.588;12.148;2023-06-22T10:47:20;30.90;87.20
11304;DHT22;5707;49.588;12.148;2023-06-22T10:49:46;30.90;88.10
11304;DHT22;5707;49.588;12.148;2023-06-22T10:52:11;30.90;87.40
11304;DHT22;5707;49.588;12.148;2023-06-22T10:54:38;31.00;90.50
11304;DHT22;5707;49.588;12.148;2023-06-22T10:57:03;31.10;86.40
11304;DHT22;5707;49.588;12.148;2023-06-22T10:59:29;31.20;89.20
11304;DHT22;5707;49.588;12.148;2023-06-22T11:01:58;31.30;88.80
11304;DHT22;5707;49.588;12.148;2023-06-22T11:04:24;31.50;89.30
11304;DHT22;5707;49.588;12.148;2023-06-22T11:06:50;31.50;84.50
11304;DHT22;5707;49.588;12.148;2023-06-22T11:09:16;31.50;89.50
11304;DHT22;5707;49.588;12.148;2023-06-22T11:11:46;31.60;90.00
11304;DHT22;5707;49.588;12.148;2023-06-22T11:14:11;31.60;88.20
11304;DHT22;5707;49.588;12.148;2023-06-22T11:16:37;31.70;86.50
11304;DHT22;5707;49.588;12.148;2023-06-22T11:19:05;31.60;86.10
11304;DHT22;5707;49.588;12.148;2023-06-22T11:21:31;31.60;82.00
11304;DHT22;5707;49.588;12.148;2023-06-22T11:23:57;31.50;82.70
11304;DHT22;5707;49.588;12.148;2023-06-22T11:26:24;31.60;84.50
11304;DHT22;5707;49.588;12.148;2023-06-22T11:28:49;31.70;80.90
11304;DHT22;5707;49.588;12.148;2023-06-22T11:31:15;31.70;85.20
11304;DHT22;5707;49.588;12.148;2023-06-22T11:33:40;31.70;85.50
11304;DHT22;5707;49.588;12.148;2023-06-22T11:36:06;31.60;85.50
11304;DHT22;5707;49.588;12.148;2023-06-22T11:38:31;31.80;83.30
11304;DHT22;5707;49.588;12.148;2023-06-22T11:40:58;31.90;83.30
11304;DHT22;5707;49.588;12.148;2023-06-22T11:43:24;31.90;83.20
11304;DHT22;5707;49.588;12.148;2023-06-22T11:45:49;31.90;82.60
11304;DHT22;5707;49.588;12.148;2023-06-22T11:48:16;32.00;83.30
11304;DHT22;5707;49.588;12.148;2023-06-22T11:50:41;32.00;84.00
11304;DHT22;5707;49.588;12.148;2023-06-22T11:53:07;32.10;84.20
11304;DHT22;5707;49.588;12.148;2023-06-22T11:55:32;32.20;82.80
11304;DHT22;5707;49.588;12.148;2023-06-22T11:57:58;32.20;83.10
11304;DHT22;5707;49.588;12.148;2023-06-22T12:00:26;32.20;80.90
11304;DHT22;5707;49.588;12.148;2023-06-22T12:02:51;32.30;79.50
11304;DHT22;5707;49.588;12.148;2023-06-22T12:05:20;32.30;80.40
11304;DHT22;5707;49.588;12.148;2023-06-22T12:07:46;32.20;77.90
11304;DHT22;5707;49.588;12.148;2023-06-22T12:10:12;32.30;82.10
11304;DHT22;5707;49.588;12.148;2023-06-22T12:12:38;32.50;76.70
11304;DHT22;5707;49.588;12.148;2023-06-22T12:15:04;32.50;74.70
11304;DHT22;5707;49.588;12.148;2023-06-22T12:17:30;32.60;75.40
11304;DHT22;5707;49.588;12.148;2023-06-22T12:19:56;32.70;74.40
11304;DHT22;5707;49.588;12.148;2023-06-22T12:22:21;32.80;73.90
11304;DHT22;5707;49.588;12.148;2023-06-22T12:24:47;32.80;74.00
11304;DHT22;5707;49.588;12.148;2023-06-22T12:27:12;32.90;69.30
11304;DHT22;5707;49.588;12.148;2023-06-22T12:29:38;32.80;70.50
11304;DHT22;5707;49.588;12.148;2023-06-22T12:32:04;32.90;70.20
11304;DHT22;5707;49.588;12.148;2023-06-22T12:34:29;33.00;70.20
11304;DHT22;5707;49.588;12.148;2023-06-22T12:36:55;33.00;68.70
11304;DHT22;5707;49.588;12.148;2023-06-22T12:39:21;33.20;69.30
11304;DHT22;5707;49.588;12.148;2023-06-22T12:41:46;33.30;67.40
11304;DHT22;5707;49.588;12.148;2023-06-22T12:44:12;33.30;66.90
11304;DHT22;5707;49.588;12.148;2023-06-22T12:46:37;33.40;64.70
11304;DHT22;5707;49.588;12.148;2023-06-22T12:49:04;33.40;65.00
11304;DHT22;5707;49.588;12.148;2023-06-22T12:51:30;33.50;63.20
11304;DHT22;5707;49.588;12.148;2023-06-22T12:53:56;33.70;59.70
11304;DHT22;5707;49.588;12.148;2023-06-22T12:56:22;33.80;57.90
11304;DHT22;5707;49.588;12.148;2023-06-22T12:58:47;33.80;57.10
11304;DHT22;5707;49.588;12.148;2023-06-22T13:01:13;34.00;57.80
11304;DHT22;5707;49.588;12.148;2023-06-22T13:03:39;33.90;56.30
11304;DHT22;5707;49.588;12.148;2023-06-22T13:06:05;33.80;56.70
11304;DHT22;5707;49.588;12.148;2023-06-22T13:08:30;33.60;58.40
11304;DHT22;5707;49.588;12.148;2023-06-22T13:10:56;33.80;59.50
11304;DHT22;5707;49.588;12.148;2023-06-22T13:13:25;34.00;59.50
11304;DHT22;5707;49.588;12.148;2023-06-22T13:15:52;34.00;56.80
11304;DHT22;5707;49.588;12.148;2023-06-22T13:18:19;33.90;54.50
11304;DHT22;5707;49.588;12.148;2023-06-22T13:20:44;33.80;55.00
11304;DHT22;5707;49.588;12.148;2023-06-22T13:23:11;33.60;55.40
11304;DHT22;5707;49.588;12.148;2023-06-22T13:25:36;33.70;57.30
11304;DHT22;5707;49.588;12.148;2023-06-22T13:28:02;33.90;55.10
11304;DHT22;5707;49.588;12.148;2023-06-22T13:30:27;34.00;54.60
11304;DHT22;5707;49.588;12.148;2023-06-22T13:32:53;34.00;54.40
11304;DHT22;5707;49.588;12.148;2023-06-22T13:35:18;34.00;53.70
11304;DHT22;5707;49.588;12.148;2023-06-22T13:37:44;34.10;53.70
11304;DHT22;5707;49.588;12.148;2023-06-22T13:40:10;34.10;50.90
11304;DHT22;5707;49.588;12.148;2023-06-22T13:42:36;34.10;51.50
11304;DHT22;5707;49.588;12.148;2023-06-22T13:45:02;34.20;52.30
11304;DHT22;5707;49.588;12.148;2023-06-22T13:47:29;34.50;53.90
11304;DHT22;5707;49.588;12.148;2023-06-22T13:49:55;34.70;50.00
11304;DHT22;5707;49.588;12.148;2023-06-22T13:52:20;34.90;50.00
11304;DHT22;5707;49.588;12.148;2023-06-22T13:54:46;35.10;50.60
11304;DHT22;5707;49.588;12.148;2023-06-22T13:57:12;35.30;49.10
11304;DHT22;5707;49.588;12.148;2023-06-22T13:59:37;35.20;48.60
11304;DHT22;5707;49.588;12.148;2023-06-22T14:02:03;35.00;48.20
11304;DHT22;5707;49.588;12.148;2023-06-22T14:04:29;35.10;48.20
11304;DHT22;5707;49.588;12.148;2023-06-22T14:06:54;34.90;46.40
11304;DHT22;5707;49.588;12.148;2023-06-22T14:09:21;34.90;48.20
11304;DHT22;5707;49.588;12.148;2023-06-22T14:11:46;35.30;47.30
11304;DHT22;5707;49.588;12.148;2023-06-22T14:14:12;35.70;47.30
11304;DHT22;5707;49.588;12.148;2023-06-22T14:16:37;36.30;46.40
11304;DHT22;5707;49.588;12.148;2023-06-22T14:19:03;36.60;43.50
11304;DHT22;5707;49.588;12.148;2023-06-22T14:21:29;36.90;44.00
11304;DHT22;5707;49.588;12.148;2023-06-22T14:23:54;37.10;41.70
11304;DHT22;5707;49.588;12.148;2023-06-22T14:26:20;36.90;42.30
11304;DHT22;5707;49.588;12.148;2023-06-22T14:28:46;36.70;40.60
11304;DHT22;5707;49.588;12.148;2023-06-22T14:31:17;36.20;40.10
11304;DHT22;5707;49.588;12.148;2023-06-22T14:33:48;36.00;40.60
11304;DHT22;5707;49.588;12.148;2023-06-22T14:36:15;36.10;41.90
11304;DHT22;5707;49.588;12.148;2023-06-22T14:38:41;36.60;41.00
11304;DHT22;5707;49.588;12.148;2023-06-22T14:41:06;37.30;39.50
11304;DHT22;5707;49.588;12.148;2023-06-22T14:43:32;37.60;38.40
11304;DHT22;5707;49.588;12.148;2023-06-22T14:45:57;37.90;36.30
11304;DHT22;5707;49.588;12.148;2023-06-22T14:48:23;37.70;35.60
11304;DHT22;5707;49.588;12.148;2023-06-22T14:50:49;37.70;36.70
11304;DHT22;5707;49.588;12.148;2023-06-22T14:53:14;38.00;35.50
11304;DHT22;5707;49.588;12.148;2023-06-22T14:55:40;37.90;35.30
11304;DHT22;5707;49.588;12.148;2023-06-22T14:58:06;37.80;34.10
11304;DHT22;5707;49.588;12.148;2023-06-22T15:00:31;37.70;34.10
11304;DHT22;5707;49.588;12.148;2023-06-22T15:02:57;37.70;35.10
11304;DHT22;5707;49.588;12.148;2023-06-22T15:05:24;37.60;33.90
11304;DHT22;5707;49.588;12.148;2023-06-22T15:07:50;37.70;33.80
11304;DHT22;5707;49.588;12.148;2023-06-22T15:10:16;37.60;33.70
11304;DHT22;5707;49.588;12.148;2023-06-22T15:12:41;37.40;34.90
11304;DHT22;5707;49.588;12.148;2023-06-22T15:15:07;37.40;35.30
11304;DHT22;5707;49.588;12.148;2023-06-22T15:17:33;37.30;33.90
11304;DHT22;5707;49.588;12.148;2023-06-22T15:19:59;37.20;34.00
11304;DHT22;5707;49.588;12.148;2023-06-22T15:22:24;37.00;34.70
11304;DHT22;5707;49.588;12.148;2023-06-22T15:24:50;37.20;33.90
11304;DHT22;5707;49.588;12.148;2023-06-22T15:27:18;37.70;33.70
11304;DHT22;5707;49.588;12.148;2023-06-22T15:29:44;38.40;32.60
11304;DHT22;5707;49.588;12.148;2023-06-22T15:32:10;39.10;31.50
11304;DHT22;5707;49.588;12.148;2023-06-22T15:34:35;39.60;30.30